createdAt,value
2022-09-23T00:04:00.883Z,101345.70
2022-09-23T00:34:04.895Z,101329.95
2022-09-23T01:04:08.034Z,101319.52
2022-09-23T01:34:11.593Z,101300.86
2022-09-23T02:04:15.415Z,101294.58
2022-09-23T02:34:19.116Z,101288.23
2022-09-23T03:04:22.449Z,101279.34
2022-09-23T03:34:26.391Z,101267.00
2022-09-23T04:04:29.364Z,101243.45
2022-09-23T04:34:33.124Z,101222.76
2022-09-23T05:04:36.072Z,101214.91
2022-09-23T05:34:38.960Z,101235.08
2022-09-23T06:04:42.200Z,101233.63
2022-09-23T06:34:51.523Z,101224.10
2022-09-23T07:04:55.336Z,101199.09
2022-09-23T07:34:58.933Z,101204.41
2022-09-23T08:05:02.119Z,101218.08
2022-09-23T08:35:05.266Z,101200.93
2022-09-23T09:05:08.578Z,101179.48
2022-09-23T09:35:12.224Z,101165.77
2022-09-23T10:05:23.838Z,101141.60
2022-09-23T10:35:28.621Z,101113.17
2022-09-23T11:05:31.370Z,101086.29
2022-09-23T11:35:35.925Z,101056.42
2022-09-23T12:05:38.997Z,101022.49
2022-09-23T12:35:42.578Z,100997.13
2022-09-23T13:05:46.046Z,100967.08
2022-09-23T13:35:49.517Z,100935.22
2022-09-23T14:05:53.131Z,100901.48
2022-09-23T14:35:56.391Z,100886.13
2022-09-23T15:05:59.163Z,100862.33
2022-09-23T15:36:03.663Z,100848.40
2022-09-23T16:06:06.624Z,100834.93
2022-09-23T16:36:10.701Z,100826.27
2022-09-23T17:06:14.202Z,100824.68
2022-09-23T17:36:17.962Z,100819.43
2022-09-23T18:06:21.363Z,100824.38
2022-09-23T18:36:24.589Z,100825.12
2022-09-23T19:06:27.954Z,100805.89
2022-09-23T19:36:31.568Z,100808.27
2022-09-23T20:06:34.503Z,100794.28
2022-09-23T20:36:38.201Z,100775.42
2022-09-23T21:06:40.942Z,100790.70
2022-09-23T21:36:44.839Z,100769.50
2022-09-23T22:06:48.812Z,100755.34
2022-09-23T22:36:52.425Z,100739.92
2022-09-23T23:06:56.891Z,100739.00
2022-09-23T23:37:00.176Z,100710.95
